Pagrindinis puslapis
METAR-TAF:

METAR-TAF

Oro uostai :

Adis Abeba, Etiopija

platuma: 08-59N, ilguma: 038-48E, Aukštis: 2355 m

Dabartinis oras

Ataskaita buvo paskelbta 1 valandą ir 5 minutes, ne 07:00 UTC
Vėjas 7 kt iš Pietų
Temperatūra 16°C
Drėgmė 88%
Slėgis 1026 hPa
Matomumas 10 km arba daugiau
Su prošvaistėmis ne aukštis 2400 ft
Su prošvaistėmis ne aukštis 8000 ft

METAR: HAAB 300700Z 17007KT 9999 BKN024 BKN080 16/14 Q1026

Laikas: 11:05 (08:05 UTC)

Prognozė

Ataskaita buvo paskelbta 4 valandos ir 35 minutes, ne 03:30 UTC
Prognozė galioja nuo 30 metu 06 UTC su 01 metu 12 UTC
Vėjas 4 kt iš Pietų
Matomumas: 8000 m
Su prošvaistėmis ne aukštis 2400 ft
Su prošvaistėmis ne aukštis 8000 ft
Tapsmas
nuo 30 metu 11 UTC su 30 metu 19 UTC
Vėjas 4 kt iš Pietų/Pietryčių
Matomumas: 5000 m
Su prošvaistėmis ne aukštis 2200 ft
Apsiniaukę ne aukštis 8000 ft
lietus

TAF: HAAB 300330Z 3006/0112 18004KT 8000 BR/-RA BKN024 BKN080 BECMG 3011/3019 16004KT SHRA 5000 BKN022 OVC080

Orai ataskaitas ir orų prognozės (METAR, TAF).

turimą stotys yra geltonos ir raudonos taškus žemėlapyje.

Perkelti pele per norėdami pamatyti stoties vardą.

Tada spustelėkite, norėdami matyti oro stebėjimo ir prognozės.

Norėdami pakeisti žemėlapį: spustelėkite ant žalios mygtukų su juodo kryžiaus žemyn,; žalią mygtuką su brūkšneliu, jei norite nutolinti; arba žalių rodyklių gretimoms žemėlapius.


METAR-TAF: